Inicio METAR Ruta Wind Satelite

Informe Meteorológico

Fecha: 2020/11/30 14:57:26 Local
2020.11.30 19:57 UTC


Estado: VENCIDO
Operación:
Station name not available
Nov 11, 2020 - 06:00 AM EST / 2020.11.11 1100 UTC
Wind: Variable at 2 MPH (2 KT):0
Visibility: 4 mile(s):0
Sky conditions: mostly cloudy
Weather: fog in the vicinity
Temperature: 75 F (24 C)
Dew Point: 75 F (24 C)
Relative Humidity: 100%
Pressure (altimeter): 29.9 in. Hg (1012 hPa)
ob: SKYP 111100Z VRB02KT 8000 VCFG BKN040 24/24 A2990
cycle: 11